Time;durP1;ratioP1;P1;durP2;ratioP2;P2;SDS_P1;SDS_P2;PMS_P1;PMS_P2;Temp;Humidity;BMP_temperature;BMP_pressure;BME280_temperature;BME280_humidity;BME280_pressure;Samples;Min_cycle;Max_cycle;Signal;HPM_P1;HPM_P2
2023/04/06 00:00:35;;;;;;;10.60;8.30;;;;;;;1.45;63.59;101273.53;5035058;28;20072;-80
2023/04/06 00:03:02;;;;;;;14.75;8.98;;;;;;;1.41;63.59;101275.91;5033737;28;20037;-81
2023/04/06 00:05:30;;;;;;;10.43;7.43;;;;;;;1.38;63.99;101270.66;5033300;28;20033;-80
2023/04/06 00:08:00;;;;;;;8.57;7.68;;;;;;;1.36;64.30;101270.59;5033802;28;20115;-81
2023/04/06 00:10:26;;;;;;;11.55;7.40;;;;;;;1.34;64.38;101269.66;5033384;28;20380;-80
2023/04/06 00:12:56;;;;;;;10.23;7.78;;;;;;;1.33;65.07;101262.75;5017720;28;20041;-80
2023/04/06 00:15:23;;;;;;;9.15;7.75;;;;;;;1.30;66.30;101265.19;5034303;28;20076;-80
2023/04/06 00:17:49;;;;;;;11.00;9.68;;;;;;;1.27;66.07;101259.94;5033746;28;20075;-79
2023/04/06 00:20:17;;;;;;;12.60;8.25;;;;;;;1.23;67.18;101263.22;5050009;28;20132;-80
2023/04/06 00:22:44;;;;;;;8.23;7.43;;;;;;;1.22;68.29;101262.31;5018570;28;20057;-80
2023/04/06 00:25:11;;;;;;;14.77;8.40;;;;;;;1.17;68.31;101253.53;5050278;28;20072;-80
2023/04/06 00:27:41;;;;;;;9.75;7.93;;;;;;;1.12;69.11;101255.94;5033609;28;20455;-80
2023/04/06 00:30:09;;;;;;;12.05;8.90;;;;;;;1.08;69.31;101258.31;5057336;28;20052;-80
2023/04/06 00:32:36;;;;;;;10.73;8.27;;;;;;;1.04;70.62;101248.72;5033640;28;20057;-82
2023/04/06 00:35:04;;;;;;;15.25;8.77;;;;;;;1.00;70.12;101255.44;5033270;28;20095;-81
2023/04/06 00:37:31;;;;;;;11.07;8.98;;;;;;;0.96;71.54;101249.28;5032907;28;20107;-79
2023/04/06 00:39:58;;;;;;;15.45;9.85;;;;;;;0.94;72.11;101250.94;5032693;28;20116;-80
2023/04/06 00:42:26;;;;;;;13.15;9.32;;;;;;;0.92;72.31;101249.09;5033274;28;20037;-79
2023/04/06 00:45:00;;;;;;;11.18;8.95;;;;;;;0.86;72.67;101246.28;5049389;28;20052;-80
2023/04/06 00:47:30;;;;;;;13.48;8.68;;;;;;;0.81;73.97;101251.25;5032981;28;20041;-80
2023/04/06 00:49:57;;;;;;;13.48;8.88;;;;;;;0.74;73.93;101246.66;5033624;28;20037;-81
2023/04/06 00:52:23;;;;;;;10.32;9.32;;;;;;;0.71;74.57;101247.41;5033459;28;20099;-81
2023/04/06 00:54:51;;;;;;;12.75;9.55;;;;;;;0.71;74.23;101246.56;5051750;28;20056;-81
2023/04/06 00:57:18;;;;;;;10.07;8.90;;;;;;;0.69;74.73;101241.31;5039913;28;20349;-81
2023/04/06 00:59:46;;;;;;;10.38;8.60;;;;;;;0.72;75.16;101235.41;5034081;28;20038;-80
2023/04/06 01:02:13;;;;;;;12.02;7.95;;;;;;;0.68;75.06;101237.00;5034007;28;20079;-80
2023/04/06 01:04:39;;;;;;;12.82;8.95;;;;;;;0.67;74.33;101226.63;5034007;28;20479;-80
2023/04/06 01:07:06;;;;;;;13.75;8.88;;;;;;;0.64;75.29;101222.25;5032411;28;20080;-80
2023/04/06 01:09:34;;;;;;;11.57;9.02;;;;;;;0.61;75.03;101223.00;5049688;28;20095;-81
2023/04/06 01:12:00;;;;;;;13.13;9.20;;;;;;;0.60;76.29;101223.81;5048555;28;20053;-80
2023/04/06 01:14:27;;;;;;;11.93;9.07;;;;;;;0.60;74.45;101222.91;5049534;28;20045;-80
2023/04/06 01:16:54;;;;;;;12.02;7.97;;;;;;;0.57;75.07;101222.78;5032892;28;20475;-81
2023/04/06 01:19:21;;;;;;;13.23;8.70;;;;;;;0.56;74.76;101221.03;5015824;28;20099;-81
2023/04/06 01:21:49;;;;;;;9.05;6.47;;;;;;;0.53;74.52;101216.63;5032376;28;20417;-81
2023/04/06 01:24:15;;;;;;;9.40;7.75;;;;;;;0.50;74.37;101219.09;5033069;28;20041;-80
2023/04/06 01:26:43;;;;;;;10.60;7.00;;;;;;;0.49;74.53;101215.63;5017115;28;20041;-80
2023/04/06 01:29:10;;;;;;;8.30;6.88;;;;;;;0.50;74.50;101226.81;5051956;28;20484;-79
2023/04/06 01:31:37;;;;;;;9.40;7.85;;;;;;;0.49;75.27;101217.31;5033380;28;20212;-80
2023/04/06 01:34:04;;;;;;;9.10;7.07;;;;;;;0.47;74.42;101217.25;5032702;28;20096;-79
2023/04/06 01:36:31;;;;;;;12.10;6.80;;;;;;;0.44;74.32;101218.81;5049109;28;20042;-80
2023/04/06 01:38:57;;;;;;;12.02;8.02;;;;;;;0.40;75.46;101212.66;5056252;28;20038;-80
2023/04/06 01:41:24;;;;;;;9.57;7.00;;;;;;;0.36;75.14;101215.06;5044525;28;20064;-80
2023/04/06 01:43:54;;;;;;;12.48;7.18;;;;;;;0.36;75.74;101215.94;5048513;28;20041;-79
2023/04/06 01:46:21;;;;;;;10.88;7.25;;;;;;;0.30;76.12;101216.56;5056190;28;20033;-80
2023/04/06 01:48:47;;;;;;;13.55;7.63;;;;;;;0.27;75.42;101215.53;5037980;28;20037;-80
2023/04/06 01:51:14;;;;;;;9.45;7.28;;;;;;;0.26;76.68;101219.84;5067380;28;20468;-79
2023/04/06 01:53:41;;;;;;;9.82;6.75;;;;;;;0.26;76.66;101216.34;5044668;28;20041;-80
2023/04/06 01:56:07;;;;;;;7.90;6.75;;;;;;;0.21;76.45;101213.59;5040403;28;20037;-81
2023/04/06 01:58:35;;;;;;;12.45;7.47;;;;;;;0.19;76.57;101212.66;5051324;28;20488;-80
2023/04/06 02:01:01;;;;;;;10.23;6.75;;;;;;;0.20;76.47;101206.69;5048492;28;20052;-79
2023/04/06 02:03:28;;;;;;;9.30;6.57;;;;;;;0.19;75.98;101210.06;5048627;28;20033;-80
2023/04/06 02:05:54;;;;;;;10.32;6.53;;;;;;;0.16;75.75;101215.09;5015594;28;20049;-80
2023/04/06 02:08:21;;;;;;;10.25;6.07;;;;;;;0.15;75.60;101209.06;5015194;28;20099;-80
2023/04/06 02:10:48;;;;;;;8.02;6.18;;;;;;;0.16;75.34;101208.25;5032031;28;20239;-80
2023/04/06 02:13:14;;;;;;;8.50;7.15;;;;;;;0.18;75.70;101199.72;5048226;28;20042;-80
2023/04/06 02:15:41;;;;;;;6.68;5.72;;;;;;;0.15;75.54;101208.19;5048644;28;20038;-80
2023/04/06 02:18:10;;;;;;;8.77;6.82;;;;;;;0.13;76.06;101202.97;5051421;28;20037;-79
2023/04/06 02:20:36;;;;;;;7.55;6.57;;;;;;;0.09;75.72;101197.63;5035202;28;20041;-81
2023/04/06 02:23:05;;;;;;;8.75;5.47;;;;;;;0.04;76.38;101197.44;5035712;28;20071;-80
2023/04/06 02:25:32;;;;;;;6.85;5.88;;;;;;;0.02;76.87;101193.03;5051887;28;20121;-80
2023/04/06 02:27:58;;;;;;;13.40;6.20;;;;;;;-0.01;76.85;101196.38;5051935;28;20030;-81
2023/04/06 02:30:25;;;;;;;8.45;6.63;;;;;;;-0.01;77.62;101194.66;5035223;28;20096;-81
2023/04/06 02:32:51;;;;;;;8.13;6.03;;;;;;;-0.05;78.12;101190.19;5018716;28;20049;-81
2023/04/06 02:35:18;;;;;;;10.27;6.65;;;;;;;-0.04;78.69;101191.06;5052618;28;20059;-81
2023/04/06 02:37:45;;;;;;;9.23;7.10;;;;;;;-0.05;78.55;101185.06;5034970;28;20087;-80
2023/04/06 02:40:12;;;;;;;7.75;5.85;;;;;;;-0.06;78.63;101183.28;5035492;28;20099;-80
2023/04/06 02:42:38;;;;;;;6.55;5.20;;;;;;;-0.08;78.56;101182.34;5052135;28;20124;-81
2023/04/06 02:45:06;;;;;;;8.60;5.85;;;;;;;-0.07;79.07;101180.66;5035380;28;20124;-80
2023/04/06 02:47:34;;;;;;;8.40;6.35;;;;;;;-0.08;79.05;101189.19;5036073;28;20045;-80
2023/04/06 02:50:01;;;;;;;8.57;6.07;;;;;;;-0.11;78.84;101189.94;5051078;28;20469;-80
2023/04/06 02:52:28;;;;;;;8.68;5.80;;;;;;;-0.13;79.24;101189.00;5035275;28;20041;-81
2023/04/06 02:54:54;;;;;;;10.48;6.72;;;;;;;-0.13;79.68;101185.53;5051421;28;20120;-81
2023/04/06 02:57:21;;;;;;;8.30;6.35;;;;;;;-0.17;80.26;101180.25;5051441;28;20112;-80
2023/04/06 02:59:48;;;;;;;8.57;6.43;;;;;;;-0.22;79.75;101179.19;5051241;28;20025;-81
2023/04/06 03:02:14;;;;;;;11.68;6.90;;;;;;;-0.22;79.96;101179.19;5050981;28;20038;-81
2023/04/06 03:04:41;;;;;;;8.23;6.35;;;;;;;-0.24;80.21;101180.78;5051820;28;20033;-81
2023/04/06 03:07:08;;;;;;;8.98;6.05;;;;;;;-0.24;80.60;101179.94;5035042;28;20033;-81
2023/04/06 03:09:38;;;;;;;8.13;6.40;;;;;;;-0.27;80.95;101172.09;5036002;28;20037;-81
2023/04/06 03:12:08;;;;;;;15.15;7.68;;;;;;;-0.25;81.41;101178.16;5034608;28;20063;-81
2023/04/06 03:14:35;;;;;;;14.20;11.32;;;;;;;-0.29;81.24;101172.00;5051268;28;20112;-80
2023/04/06 03:17:02;;;;;;;13.82;8.15;;;;;;;-0.30;81.36;101171.94;5017923;28;20049;-80
2023/04/06 03:19:28;;;;;;;14.73;10.07;;;;;;;-0.35;82.04;101170.03;5051595;28;20052;-81
2023/04/06 03:21:55;;;;;;;14.20;9.98;;;;;;;-0.35;82.53;101169.19;5035914;28;20076;-80
2023/04/06 03:24:22;;;;;;;9.02;7.60;;;;;;;-0.33;82.97;101170.09;5034472;28;20048;-79
2023/04/06 03:26:48;;;;;;;10.73;7.20;;;;;;;-0.30;82.61;101169.38;5034053;28;20051;-79
2023/04/06 03:29:15;;;;;;;13.35;8.73;;;;;;;-0.34;81.94;101166.66;5050932;28;20053;-79
2023/04/06 03:31:42;;;;;;;11.27;7.47;;;;;;;-0.31;82.30;101170.16;5034401;28;20108;-79
2023/04/06 03:34:08;;;;;;;10.73;7.28;;;;;;;-0.31;82.78;101175.31;5037553;28;20041;-80
2023/04/06 03:36:36;;;;;;;9.35;6.65;;;;;;;-0.34;81.76;101171.81;5035662;28;20101;-80
2023/04/06 03:39:03;;;;;;;15.63;7.07;;;;;;;-0.34;82.16;101182.09;5033774;28;20100;-80
2023/04/06 03:41:30;;;;;;;10.63;6.22;;;;;;;-0.39;82.05;101173.31;5033505;28;20041;-81
2023/04/06 03:43:56;;;;;;;8.70;6.50;;;;;;;-0.38;82.51;101169.91;5034119;28;20095;-81
2023/04/06 03:46:23;;;;;;;8.95;6.28;;;;;;;-0.41;82.15;101177.47;5034144;28;20037;-80
2023/04/06 03:48:50;;;;;;;8.70;6.18;;;;;;;-0.40;82.80;101174.09;5033905;28;20037;-82
2023/04/06 03:51:17;;;;;;;9.38;6.97;;;;;;;-0.40;82.67;101174.09;5035287;28;20029;-80
2023/04/06 03:53:46;;;;;;;10.50;6.82;;;;;;;-0.38;82.35;101184.47;5034846;28;20044;-80
2023/04/06 03:56:12;;;;;;;8.82;6.43;;;;;;;-0.42;82.38;101169.72;5034113;28;20084;-81
2023/04/06 03:58:39;;;;;;;9.68;6.97;;;;;;;-0.46;82.94;101173.81;5050719;28;20037;-80
2023/04/06 04:01:06;;;;;;;9.98;6.38;;;;;;;-0.47;82.87;101174.66;5035441;28;20052;-79
2023/04/06 04:03:34;;;;;;;8.82;6.65;;;;;;;-0.49;83.22;101185.69;5039233;28;20080;-79
2023/04/06 04:06:03;;;;;;;13.38;7.00;;;;;;;-0.49;83.13;101181.41;5036943;28;20056;-80
2023/04/06 04:08:30;;;;;;;8.05;5.95;;;;;;;-0.51;83.25;101178.78;5055491;28;20037;-80
2023/04/06 04:10:57;;;;;;;10.75;6.60;;;;;;;-0.53;82.93;101182.97;5037438;28;20041;-79
2023/04/06 04:13:25;;;;;;;8.93;6.65;;;;;;;-0.55;83.17;101179.47;5043107;28;20048;-80
2023/04/06 04:18:32;;;;;;;10.95;6.95;;;;;;;-0.48;82.90;101182.28;5029010;28;20430;-80
2023/04/06 04:21:00;;;;;;;6.65;5.30;;;;;;;-0.51;82.76;101181.34;5047901;28;20049;-80
2023/04/06 04:23:27;;;;;;;6.60;5.47;;;;;;;-0.53;82.73;101177.81;5069371;28;20045;-79
2023/04/06 04:25:53;;;;;;;10.50;6.60;;;;;;;-0.57;82.59;101190.50;5043951;28;20121;-80
2023/04/06 04:28:21;;;;;;;7.78;5.78;;;;;;;-0.58;83.37;101181.00;5034178;28;20037;-81
2023/04/06 04:30:48;;;;;;;6.82;5.22;;;;;;;-0.62;82.89;101180.00;5033922;28;20103;-80
2023/04/06 04:33:15;;;;;;;8.98;6.10;;;;;;;-0.60;83.33;101180.06;5049525;28;20041;-80
2023/04/06 04:35:42;;;;;;;7.85;6.80;;;;;;;-0.59;83.24;101177.53;5032993;28;20483;-80
2023/04/06 04:38:09;;;;;;;8.52;6.30;;;;;;;-0.59;83.12;101177.53;5049301;28;20080;-81
2023/04/06 04:40:35;;;;;;;9.07;5.95;;;;;;;-0.55;82.70;101176.00;5031632;28;20087;-81
2023/04/06 04:43:02;;;;;;;7.68;5.32;;;;;;;-0.56;82.61;101180.28;5049678;28;20140;-81
2023/04/06 04:45:28;;;;;;;7.75;5.53;;;;;;;-0.57;82.32;101175.06;5048889;28;20033;-82
2023/04/06 04:47:55;;;;;;;9.50;6.18;;;;;;;-0.54;81.84;101177.75;5032775;28;20034;-80
2023/04/06 04:50:22;;;;;;;7.80;5.82;;;;;;;-0.55;81.48;101178.56;5048890;28;20065;-81
2023/04/06 04:52:48;;;;;;;7.75;5.95;;;;;;;-0.57;81.39;101182.78;5032574;28;20041;-81
2023/04/06 04:55:15;;;;;;;10.23;7.68;;;;;;;-0.59;81.51;101186.97;5048943;28;20041;-81
2023/04/06 04:57:42;;;;;;;6.15;5.43;;;;;;;-0.57;81.07;101178.50;5048924;28;20044;-81
2023/04/06 05:00:09;;;;;;;8.55;6.13;;;;;;;-0.53;80.69;101177.81;5049068;28;20530;-81
2023/04/06 05:02:35;;;;;;;7.95;5.88;;;;;;;-0.50;80.76;101174.50;5032139;28;20119;-81
2023/04/06 05:05:02;;;;;;;9.75;6.07;;;;;;;-0.49;79.43;101168.56;5032320;28;20121;-81
2023/04/06 05:07:28;;;;;;;7.60;5.65;;;;;;;-0.45;79.93;101174.72;5048646;28;20434;-80
2023/04/06 05:09:55;;;;;;;8.55;6.07;;;;;;;-0.43;79.51;101178.22;5049115;28;20146;-80
2023/04/06 05:12:22;;;;;;;11.27;5.90;;;;;;;-0.41;79.73;101182.63;5049221;28;20420;-80
2023/04/06 05:14:49;;;;;;;12.05;6.53;;;;;;;-0.40;79.63;101178.38;5049131;28;20103;-81
2023/04/06 05:17:15;;;;;;;8.82;6.30;;;;;;;-0.36;79.90;101185.41;5048961;28;20456;-80
2023/04/06 05:19:42;;;;;;;6.47;5.15;;;;;;;-0.34;78.55;101182.09;5048507;28;20120;-79
2023/04/06 05:22:09;;;;;;;8.23;5.43;;;;;;;-0.32;78.51;101183.88;5032078;28;20049;-80
2023/04/06 05:24:36;;;;;;;9.18;5.50;;;;;;;-0.32;78.61;101187.31;5032756;28;20034;-80
2023/04/06 05:27:03;;;;;;;8.38;6.05;;;;;;;-0.30;78.59;101182.22;5034046;28;20497;-80
2023/04/06 05:29:30;;;;;;;10.15;6.80;;;;;;;-0.23;78.00;101179.13;5033919;28;20040;-80
2023/04/06 05:31:56;;;;;;;7.32;6.05;;;;;;;-0.21;77.59;101175.81;5032534;28;20033;-81
2023/04/06 05:34:23;;;;;;;8.43;5.53;;;;;;;-0.14;77.23;101173.47;5048839;28;20403;-81
2023/04/06 05:36:49;;;;;;;15.35;6.00;;;;;;;-0.11;76.17;101171.91;5048937;28;20037;-80
2023/04/06 05:39:18;;;;;;;9.63;6.97;;;;;;;-0.11;76.17;101174.47;5016263;28;20369;-80
2023/04/06 05:41:45;;;;;;;7.68;6.50;;;;;;;-0.09;75.82;101175.44;5031979;28;20049;-82
2023/04/06 05:44:12;;;;;;;6.57;5.75;;;;;;;-0.07;75.39;101172.94;5032148;28;20487;-80
2023/04/06 05:46:41;;;;;;;6.57;5.82;;;;;;;-0.09;75.54;101172.88;5048845;28;20062;-81
2023/04/06 05:49:08;;;;;;;8.57;5.13;;;;;;;-0.06;75.74;101174.69;5048023;28;20096;-80
2023/04/06 05:51:34;;;;;;;6.35;5.65;;;;;;;-0.02;74.83;101174.00;5034531;28;20060;-80
2023/04/06 05:54:02;;;;;;;9.43;5.95;;;;;;;0.05;74.67;101173.44;5052099;28;20052;-80
2023/04/06 05:56:30;;;;;;;7.88;6.78;;;;;;;0.12;74.38;101178.03;5052347;28;20067;-80
2023/04/06 05:58:56;;;;;;;9.82;5.97;;;;;;;0.17;73.78;101170.53;5052393;28;20076;-80
2023/04/06 06:01:23;;;;;;;7.88;5.50;;;;;;;0.24;73.86;101171.66;5036362;28;20045;-81
2023/04/06 06:03:49;;;;;;;10.32;5.65;;;;;;;0.30;73.38;101174.47;5036026;28;20064;-81
2023/04/06 06:06:16;;;;;;;9.38;5.20;;;;;;;0.31;73.12;101168.50;5035606;28;20179;-80
2023/04/06 06:08:42;;;;;;;7.18;5.60;;;;;;;0.36;72.80;101172.16;5019741;28;20072;-81
2023/04/06 06:11:09;;;;;;;10.32;5.38;;;;;;;0.40;72.74;101174.03;5052183;28;20037;-81
2023/04/06 06:13:35;;;;;;;7.80;6.10;;;;;;;0.45;72.85;101172.53;5035998;28;20084;-80
2023/04/06 06:16:04;;;;;;;6.93;5.63;;;;;;;0.54;72.23;101176.31;5053207;28;20052;-81
2023/04/06 06:18:32;;;;;;;6.90;4.57;;;;;;;0.60;71.71;101172.28;5053849;28;20045;-80
2023/04/06 06:20:58;;;;;;;6.63;5.97;;;;;;;0.69;71.10;101173.44;5064854;28;20541;-80
2023/04/06 06:23:27;;;;;;;9.30;5.05;;;;;;;0.78;70.73;101176.38;5038521;28;20052;-80
2023/04/06 06:25:53;;;;;;;7.60;6.10;;;;;;;0.89;69.99;101169.09;5052097;28;20431;-81
2023/04/06 06:28:20;;;;;;;5.10;4.55;;;;;;;0.99;69.40;101177.22;5035297;28;20069;-81
2023/04/06 06:30:46;;;;;;;9.93;5.30;;;;;;;1.12;69.03;101168.28;5051959;28;20041;-81
2023/04/06 06:33:14;;;;;;;7.10;5.82;;;;;;;1.35;68.08;101175.09;5035324;28;20041;-80
2023/04/06 06:35:43;;;;;;;5.85;4.97;;;;;;;1.62;66.59;101170.94;5035304;28;20041;-79
2023/04/06 06:38:10;;;;;;;10.77;5.13;;;;;;;1.97;65.33;101175.59;5051686;28;20107;-80
2023/04/06 06:40:36;;;;;;;6.85;5.80;;;;;;;2.29;64.40;101174.13;5051550;28;20036;-80
2023/04/06 06:43:03;;;;;;;7.22;4.97;;;;;;;2.59;61.35;101168.16;5034958;28;20057;-81
2023/04/06 06:45:30;;;;;;;6.55;5.40;;;;;;;2.89;60.57;101171.69;5051657;28;20491;-80
2023/04/06 06:47:56;;;;;;;5.50;5.00;;;;;;;3.18;60.24;101171.66;5035470;28;20068;-80
2023/04/06 06:50:23;;;;;;;11.48;4.97;;;;;;;3.45;58.88;101169.88;5035029;28;20033;-81
2023/04/06 06:52:49;;;;;;;6.22;4.50;;;;;;;3.79;58.38;101168.25;5051696;28;20037;-80
2023/04/06 06:55:18;;;;;;;5.82;3.95;;;;;;;4.09;56.08;101164.72;5035357;28;20029;-80
2023/04/06 06:57:46;;;;;;;5.75;4.95;;;;;;;4.49;55.27;101164.81;5052363;28;20051;-80
2023/04/06 07:00:14;;;;;;;8.93;5.95;;;;;;;4.77;53.23;101165.47;5052280;28;20223;-81
2023/04/06 07:02:43;;;;;;;10.45;4.93;;;;;;;4.92;54.23;101165.81;5019630;28;20034;-81
2023/04/06 07:05:10;;;;;;;5.40;4.80;;;;;;;5.26;53.07;101163.97;5055242;28;20138;-79
2023/04/06 07:07:37;;;;;;;7.40;4.15;;;;;;;5.65;51.94;101156.94;5046167;28;20136;-80
2023/04/06 07:10:03;;;;;;;8.43;5.10;;;;;;;5.89;50.59;101158.25;5059379;28;20036;-80
2023/04/06 07:12:30;;;;;;;5.53;4.22;;;;;;;6.06;50.34;101156.00;5052583;28;20522;-80
2023/04/06 07:14:59;;;;;;;7.07;4.40;;;;;;;6.33;49.20;101153.00;5036882;28;20077;-81
2023/04/06 07:17:25;;;;;;;5.25;4.40;;;;;;;6.46;48.66;101154.94;5052394;28;20091;-80
2023/04/06 07:19:52;;;;;;;7.93;4.25;;;;;;;6.96;48.19;101153.06;5052530;28;20041;-79
2023/04/06 07:22:18;;;;;;;8.23;4.78;;;;;;;7.18;46.97;101159.44;5053509;28;20468;-81
2023/04/06 07:24:45;;;;;;;9.02;4.95;;;;;;;7.42;46.38;101160.63;5051969;28;20084;-81
2023/04/06 07:27:12;;;;;;;7.40;4.03;;;;;;;7.49;45.94;101154.63;5034850;28;20042;-80
2023/04/06 07:29:38;;;;;;;5.35;4.47;;;;;;;7.75;45.64;101149.69;5050989;28;20143;-80
2023/04/06 07:32:05;;;;;;;6.70;6.05;;;;;;;7.90;44.21;101148.09;5051007;28;20044;-81
2023/04/06 07:34:31;;;;;;;6.00;4.90;;;;;;;8.07;44.23;101153.47;5034235;28;20049;-81
2023/04/06 07:36:58;;;;;;;5.53;4.95;;;;;;;8.41;42.89;101152.06;5017872;28;20052;-81
2023/04/06 07:39:26;;;;;;;7.07;5.70;;;;;;;8.31;42.42;101151.97;5050786;28;20051;-81
2023/04/06 07:41:52;;;;;;;8.07;4.47;;;;;;;8.35;42.40;101151.13;5033978;28;20415;-81
2023/04/06 07:44:19;;;;;;;6.53;5.35;;;;;;;8.64;42.68;101151.38;5033883;28;20033;-80
2023/04/06 07:46:46;;;;;;;5.57;4.40;;;;;;;9.05;41.82;101139.47;5034576;28;20128;-82
2023/04/06 07:49:12;;;;;;;5.47;4.97;;;;;;;9.32;41.66;101140.44;5050210;28;20060;-80
2023/04/06 07:51:40;;;;;;;5.88;4.53;;;;;;;9.69;40.65;101140.56;5017426;28;20037;-80
2023/04/06 07:54:06;;;;;;;5.10;4.60;;;;;;;9.85;39.62;101144.94;5050715;28;20052;-81
2023/04/06 07:56:33;;;;;;;6.10;5.03;;;;;;;10.08;39.70;101144.97;5050227;28;20038;-80
2023/04/06 07:58:59;;;;;;;6.15;4.68;;;;;;;10.00;39.53;101145.84;5033736;28;20103;-81
2023/04/06 08:01:28;;;;;;;5.47;4.93;;;;;;;10.55;38.30;101139.78;5033888;28;20534;-83
2023/04/06 08:03:56;;;;;;;5.55;5.05;;;;;;;10.78;38.31;101137.16;5034794;28;20049;-81
2023/04/06 08:06:23;;;;;;;6.57;4.57;;;;;;;11.16;37.96;101143.13;5036304;28;20468;-80
2023/04/06 08:08:49;;;;;;;6.82;4.53;;;;;;;11.38;37.08;101142.19;5050522;28;20456;-80
2023/04/06 08:11:16;;;;;;;5.85;5.32;;;;;;;11.62;36.79;101140.31;5050387;28;20041;-80
2023/04/06 08:13:42;;;;;;;5.32;4.47;;;;;;;12.34;36.25;101141.59;5033760;28;20053;-81
2023/04/06 08:16:09;;;;;;;7.13;5.20;;;;;;;12.63;34.91;101136.97;5050498;28;20457;-80
2023/04/06 08:18:35;;;;;;;6.18;4.95;;;;;;;12.83;34.46;101139.41;5033681;28;20080;-79
2023/04/06 08:21:02;;;;;;;4.93;4.47;;;;;;;13.17;33.44;101134.63;5050560;28;20050;-81
2023/04/06 08:23:28;;;;;;;5.18;4.78;;;;;;;13.45;32.82;101134.31;5052770;28;20045;-81
2023/04/06 08:25:55;;;;;;;7.60;6.35;;;;;;;13.10;32.81;101132.09;5033671;28;20113;-81
2023/04/06 08:28:22;;;;;;;9.57;5.55;;;;;;;13.34;32.75;101136.19;5033563;28;20049;-80
2023/04/06 08:30:49;;;;;;;5.60;5.05;;;;;;;13.63;32.55;101130.56;5050446;28;20535;-80
2023/04/06 08:33:15;;;;;;;5.20;4.78;;;;;;;13.53;32.64;101124.56;5051509;28;20041;-80
2023/04/06 08:35:42;;;;;;;7.13;4.95;;;;;;;13.10;32.93;101132.09;5066417;28;20108;-80
2023/04/06 08:38:08;;;;;;;6.93;4.78;;;;;;;13.26;32.97;101131.03;5056916;28;20053;-82
2023/04/06 08:40:43;;;;;;;6.53;4.65;;;;;;;13.86;32.62;101132.00;5050438;28;20041;-81
2023/04/06 08:43:15;;;;;;;5.07;4.63;;;;;;;14.48;31.35;101126.56;5033477;28;20041;-82
2023/04/06 08:45:42;;;;;;;6.72;4.07;;;;;;;14.35;31.66;101128.59;5050360;28;20114;-81
2023/04/06 08:48:09;;;;;;;5.50;4.95;;;;;;;14.41;31.23;101126.75;5032575;28;20042;-81
2023/04/06 08:50:36;;;;;;;6.47;4.50;;;;;;;14.61;31.29;101118.47;5033043;28;20132;-81
2023/04/06 08:53:03;;;;;;;6.30;4.93;;;;;;;15.38;30.39;101122.25;5048872;28;20045;-81
2023/04/06 08:55:30;;;;;;;5.43;4.90;;;;;;;15.78;30.22;101118.72;5017594;28;20148;-81
2023/04/06 08:57:57;;;;;;;6.05;5.47;;;;;;;15.79;29.58;101120.47;5033372;28;20388;-81
2023/04/06 09:00:26;;;;;;;5.97;5.38;;;;;;;16.14;30.00;101116.16;5033393;28;20080;-82
2023/04/06 09:02:56;;;;;;;5.70;5.15;;;;;;;16.46;29.06;101119.72;5016421;28;20041;-81
2023/04/06 09:05:25;;;;;;;6.65;6.05;;;;;;;16.71;28.75;101116.44;5032613;28;20148;-82
2023/04/06 09:07:52;;;;;;;6.45;4.60;;;;;;;17.49;27.97;101115.13;5032690;28;20526;-81
2023/04/06 09:10:20;;;;;;;8.25;4.55;;;;;;;17.65;27.43;101110.22;5017152;28;20060;-81
2023/04/06 09:12:47;;;;;;;4.72;4.30;;;;;;;17.70;27.34;101110.94;5034469;28;20055;-82
2023/04/06 09:15:22;;;;;;;7.88;4.53;;;;;;;17.75;26.69;101109.03;5049259;28;20068;-81
2023/04/06 09:17:48;;;;;;;6.10;5.13;;;;;;;17.37;27.55;101108.44;5033077;28;20052;-80
2023/04/06 09:20:16;;;;;;;5.63;5.05;;;;;;;17.56;27.13;101111.41;5049271;28;20045;-81
2023/04/06 09:22:46;;;;;;;5.50;5.07;;;;;;;17.63;27.79;101105.00;5032918;28;20118;-81
2023/04/06 09:25:22;;;;;;;7.60;5.78;;;;;;;18.51;26.56;101101.25;5048959;28;20139;-81
2023/04/06 09:27:58;;;;;;;5.45;4.90;;;;;;;17.89;26.36;101105.09;5032955;28;20041;-82
2023/04/06 09:30:26;;;;;;;5.40;4.90;;;;;;;18.31;26.22;101107.25;5033545;28;20095;-82
2023/04/06 09:32:58;;;;;;;5.82;5.03;;;;;;;18.34;26.06;101101.84;5049275;28;20041;-81
2023/04/06 09:35:26;;;;;;;5.28;4.78;;;;;;;18.38;26.35;101099.97;5048816;28;20049;-81
2023/04/06 09:37:53;;;;;;;5.25;4.75;;;;;;;19.15;25.75;101099.88;5049232;28;20056;-81
2023/04/06 09:40:21;;;;;;;6.07;5.47;;;;;;;19.57;25.29;101096.50;5032922;28;20136;-81
2023/04/06 09:42:51;;;;;;;7.03;6.10;;;;;;;19.79;24.88;101099.16;5032377;28;20072;-81
2023/04/06 09:45:18;;;;;;;5.45;4.95;;;;;;;20.07;24.54;101098.03;5048864;28;20041;-80
2023/04/06 09:47:50;;;;;;;5.35;4.85;;;;;;;20.20;24.46;101087.75;5032313;28;20061;-81
2023/04/06 09:50:17;;;;;;;5.40;4.88;;;;;;;20.58;23.46;101085.22;5048631;28;20116;-81
2023/04/06 09:52:55;;;;;;;7.28;5.13;;;;;;;21.19;23.09;101085.25;5015978;28;20037;-82
2023/04/06 09:55:31;;;;;;;9.93;5.25;;;;;;;21.05;22.66;101091.19;5032754;28;20045;-81
2023/04/06 09:58:10;;;;;;;6.85;5.32;;;;;;;21.70;22.26;101082.84;5048874;28;20068;-80
2023/04/06 10:01:05;;;;;;;8.30;5.45;;;;;;;21.51;21.79;101081.06;5048382;28;20095;-81
2023/04/06 10:03:47;;;;;;;8.48;5.20;;;;;;;22.17;21.66;101074.25;5048583;28;20041;-81
2023/04/06 10:06:16;;;;;;;5.25;4.85;;;;;;;21.81;21.26;101076.03;5033190;28;20034;-81
2023/04/06 10:08:46;;;;;;;6.18;5.15;;;;;;;22.18;21.48;101068.00;5048675;28;20065;-81
2023/04/06 10:11:13;;;;;;;9.50;5.70;;;;;;;22.02;19.86;101072.38;5048517;28;20041;-82
2023/04/06 10:13:40;;;;;;;5.45;4.95;;;;;;;22.41;20.80;101060.63;5048675;28;20042;-81
2023/04/06 10:16:07;;;;;;;7.57;5.07;;;;;;;23.35;19.80;101065.41;5035220;28;20049;-81
2023/04/06 10:18:34;;;;;;;5.35;4.85;;;;;;;22.78;19.66;101067.56;5049147;28;20041;-80
2023/04/06 10:21:12;;;;;;;6.05;5.47;;;;;;;22.19;19.89;101067.06;5070437;22;20087;-81
2023/04/06 10:24:02;;;;;;;5.75;5.25;;;;;;;22.08;20.25;101072.06;5051560;28;20136;-82
2023/04/06 10:26:29;;;;;;;7.15;5.50;;;;;;;22.46;20.34;101064.81;5052301;28;20111;-82
2023/04/06 10:28:56;;;;;;;8.60;6.25;;;;;;;23.15;19.34;101063.88;5036040;28;20048;-82
2023/04/06 10:31:27;;;;;;;6.50;5.55;;;;;;;23.99;18.85;101063.56;5052310;28;20064;-81
2023/04/06 10:33:58;;;;;;;6.63;4.78;;;;;;;24.57;18.54;101055.63;5052156;28;20466;-82
2023/04/06 10:36:29;;;;;;;6.03;5.43;;;;;;;23.83;18.23;101052.00;5036202;28;20162;-82
2023/04/06 10:39:01;;;;;;;9.20;5.88;;;;;;;22.60;19.30;101052.53;5056074;28;20041;-81
2023/04/06 10:41:54;;;;;;;6.30;5.70;;;;;;;22.63;19.29;101058.56;5056590;28;20048;-81
2023/04/06 10:44:25;;;;;;;6.18;5.68;;;;;;;22.27;19.36;101054.19;5053568;28;20123;-81
2023/04/06 10:46:57;;;;;;;7.15;5.80;;;;;;;21.78;18.96;101056.69;5058701;28;20482;-82
2023/04/06 10:49:26;;;;;;;6.47;5.45;;;;;;;22.67;19.13;101050.41;5068816;28;20033;-81
2023/04/06 10:51:57;;;;;;;7.15;6.43;;;;;;;23.18;18.41;101053.00;5056569;28;20538;-81
2023/04/06 10:54:26;;;;;;;7.30;6.70;;;;;;;22.77;18.20;101055.16;5058273;28;20048;-81
2023/04/06 10:56:53;;;;;;;8.93;5.53;;;;;;;22.83;18.40;101055.75;5040083;28;20136;-82
2023/04/06 10:59:21;;;;;;;6.20;5.60;;;;;;;23.71;17.88;101048.22;5057164;28;20045;-82
2023/04/06 11:01:48;;;;;;;6.40;5.82;;;;;;;23.64;17.70;101049.56;5057762;28;20211;-82
2023/04/06 11:04:19;;;;;;;7.38;5.78;;;;;;;24.23;18.33;101042.50;5057564;28;20041;-82
2023/04/06 11:06:50;;;;;;;6.88;6.00;;;;;;;25.45;16.81;101038.56;5058393;28;20068;-82
2023/04/06 11:09:31;;;;;;;6.88;6.38;;;;;;;24.80;16.28;101040.88;5058393;28;20045;-82
2023/04/06 11:11:58;;;;;;;7.28;6.57;;;;;;;24.40;16.87;101032.59;5057147;28;20045;-81
2023/04/06 11:14:26;;;;;;;7.82;7.15;;;;;;;24.16;16.63;101024.22;5039545;28;20143;-81
2023/04/06 11:16:52;;;;;;;7.32;6.45;;;;;;;24.16;17.02;101040.28;5040307;28;20131;-81
2023/04/06 11:19:19;;;;;;;10.27;6.93;;;;;;;23.06;17.65;101028.69;5057328;28;20059;-81
2023/04/06 11:21:48;;;;;;;8.07;7.47;;;;;;;23.13;17.51;101021.19;5079580;28;20039;-81
2023/04/06 11:24:23;;;;;;;7.47;6.78;;;;;;;22.99;17.62;101023.78;5079139;28;20044;-81
2023/04/06 11:27:00;;;;;;;6.68;6.05;;;;;;;23.57;17.16;101038.34;5092630;28;20110;-81
2023/04/06 11:29:30;;;;;;;6.55;5.95;;;;;;;24.04;17.36;101024.03;5075566;28;20060;-83
2023/04/06 11:32:03;;;;;;;8.90;7.00;;;;;;;25.23;16.08;101022.03;5075566;28;20487;-82